Time;durP1;ratioP1;P1;durP2;ratioP2;P2;SDS_P1;SDS_P2;PMS_P1;PMS_P2;Temp;Humidity;BMP_temperature;BMP_pressure;BME280_temperature;BME280_humidity;BME280_pressure;Samples;Min_cycle;Max_cycle;Signal;HPM_P1;HPM_P2
2023/10/15 00:01:52;;;;;;;3.83;1.30;;;;;;;;;;5069023;28;20374;-83
2023/10/15 00:04:18;;;;;;;2.63;1.30;;;;;;;;;;5069089;28;20369;-84
2023/10/15 00:06:44;;;;;;;2.20;1.27;;;;;;;;;;5067959;28;21342;-83
2023/10/15 00:09:10;;;;;;;3.00;1.20;;;;;;;;;;5067926;28;20390;-83
2023/10/15 00:11:36;;;;;;;2.20;1.20;;;;;;;;;;5049958;28;20393;-83
2023/10/15 00:14:05;;;;;;;1.90;1.03;;;;;;;;;;5068095;28;20409;-83
2023/10/15 00:16:34;;;;;;;2.40;1.13;;;;;;;;;;5069105;28;20400;-84
2023/10/15 00:19:10;;;;;;;2.08;0.98;;;;;;;;;;5068278;28;20382;-84
2023/10/15 00:21:38;;;;;;;2.92;1.30;;;;;;;;;;5068842;28;20392;-83
2023/10/15 00:24:05;;;;;;;2.85;1.40;;;;;;;;;;5067801;28;20443;-83
2023/10/15 00:26:31;;;;;;;2.42;1.17;;;;;;;;;;5049983;28;20724;-83
2023/10/15 00:28:57;;;;;;;1.85;1.15;;;;;;;;;;5067814;28;20377;-83
2023/10/15 00:31:24;;;;;;;2.35;0.90;;;;;;;;;;5068136;28;20396;-84
2023/10/15 00:33:50;;;;;;;3.08;1.23;;;;;;;;;;5068258;28;20878;-83
2023/10/15 00:36:16;;;;;;;4.45;1.20;;;;;;;;;;5064471;28;20392;-83
2023/10/15 00:38:46;;;;;;;2.63;1.10;;;;;;;;;;5057467;28;20373;-84
2023/10/15 00:41:13;;;;;;;2.78;1.05;;;;;;;;;;5067849;28;20392;-83
2023/10/15 00:43:54;;;;;;;2.40;1.20;;;;;;;;;;5050297;28;20464;-83
2023/10/15 00:46:20;;;;;;;2.50;1.05;;;;;;;;;;5068253;28;20400;-83
2023/10/15 00:48:47;;;;;;;2.03;0.90;;;;;;;;;;5068093;28;20385;-83
2023/10/15 00:51:13;;;;;;;2.38;0.93;;;;;;;;;;5068722;28;20468;-83
2023/10/15 00:53:54;;;;;;;2.72;1.10;;;;;;;;;;5068053;28;20397;-83
2023/10/15 00:56:23;;;;;;;1.97;0.83;;;;;;;;;;5068526;28;20426;-83
2023/10/15 01:03:49;;;;;;;2.80;0.70;;;;;;;;;;5068118;28;20408;-83
2023/10/15 01:06:18;;;;;;;2.55;1.00;;;;;;;;;;5067863;28;20401;-83
2023/10/15 01:08:46;;;;;;;1.90;0.90;;;;;;;;;;5067513;28;20388;-84
2023/10/15 01:11:18;;;;;;;1.92;0.75;;;;;;;;;;5067384;28;20401;-83
2023/10/15 01:13:44;;;;;;;3.27;1.03;;;;;;;;;;5050269;28;20439;-83
2023/10/15 01:16:13;;;;;;;2.47;1.10;;;;;;;;;;5057150;28;20458;-83
2023/10/15 01:18:39;;;;;;;3.40;1.20;;;;;;;;;;5067174;28;20389;-83
2023/10/15 01:21:09;;;;;;;2.58;1.13;;;;;;;;;;5067199;28;20385;-83
2023/10/15 01:26:17;;;;;;;2.13;1.00;;;;;;;;;;5067043;28;20385;-83
2023/10/15 01:28:45;;;;;;;2.83;0.90;;;;;;;;;;5067759;28;20385;-83
2023/10/15 01:31:15;;;;;;;2.45;1.08;;;;;;;;;;5067395;28;20434;-84
2023/10/15 01:33:49;;;;;;;2.60;1.10;;;;;;;;;;5051790;28;20428;-83
2023/10/15 01:36:22;;;;;;;2.63;1.30;;;;;;;;;;5051288;28;20883;-83
2023/10/15 01:38:54;;;;;;;3.10;1.30;;;;;;;;;;5067661;28;20393;-83
2023/10/15 01:41:22;;;;;;;1.60;1.10;;;;;;;;;;5067270;28;20397;-84
2023/10/15 01:43:51;;;;;;;3.15;1.10;;;;;;;;;;5067589;28;20469;-83
2023/10/15 01:46:40;;;;;;;2.03;1.10;;;;;;;;;;5067206;28;20386;-83
2023/10/15 01:49:08;;;;;;;2.78;1.20;;;;;;;;;;5068242;28;20389;-84
2023/10/15 01:51:39;;;;;;;5.20;1.33;;;;;;;;;;5054777;28;20392;-83
2023/10/15 01:54:09;;;;;;;2.03;1.00;;;;;;;;;;5068566;28;20802;-84
2023/10/15 01:56:36;;;;;;;2.45;0.93;;;;;;;;;;5069726;28;20402;-83
2023/10/15 01:59:07;;;;;;;2.20;1.10;;;;;;;;;;5069781;28;20385;-83
2023/10/15 02:01:37;;;;;;;2.53;1.00;;;;;;;;;;5069103;28;20424;-83
2023/10/15 02:04:03;;;;;;;2.53;1.35;;;;;;;;;;5057523;28;20453;-83
2023/10/15 02:06:35;;;;;;;2.70;0.97;;;;;;;;;;5069292;28;20397;-84
2023/10/15 02:09:08;;;;;;;3.87;1.30;;;;;;;;;;5080739;28;20394;-84
2023/10/15 02:11:42;;;;;;;2.92;1.10;;;;;;;;;;5069538;28;20421;-83
2023/10/15 02:14:09;;;;;;;3.10;1.13;;;;;;;;;;5068867;28;20418;-85
2023/10/15 02:16:37;;;;;;;1.73;1.00;;;;;;;;;;5068156;28;20388;-83
2023/10/15 02:19:07;;;;;;;2.38;1.02;;;;;;;;;;5068924;28;20380;-83
2023/10/15 02:21:34;;;;;;;2.70;1.00;;;;;;;;;;5069528;28;20428;-84
2023/10/15 02:24:08;;;;;;;2.40;1.23;;;;;;;;;;5069019;28;20385;-84
2023/10/15 02:26:35;;;;;;;2.47;1.10;;;;;;;;;;5068717;28;20389;-83
2023/10/15 02:29:22;;;;;;;1.55;0.90;;;;;;;;;;5051435;28;20389;-83
2023/10/15 02:31:48;;;;;;;1.77;0.93;;;;;;;;;;5056849;28;20429;-84
2023/10/15 02:34:16;;;;;;;2.67;0.95;;;;;;;;;;5060837;28;20424;-83
2023/10/15 02:36:43;;;;;;;3.90;1.10;;;;;;;;;;5066928;28;20392;-83
2023/10/15 02:39:09;;;;;;;2.42;1.00;;;;;;;;;;5067468;28;20386;-83
2023/10/15 02:41:41;;;;;;;1.95;1.10;;;;;;;;;;5068791;28;20374;-84
2023/10/15 02:44:13;;;;;;;2.80;0.98;;;;;;;;;;5051308;28;20385;-83
2023/10/15 02:46:47;;;;;;;2.10;0.95;;;;;;;;;;5068669;28;20747;-82
2023/10/15 02:49:15;;;;;;;2.45;1.10;;;;;;;;;;5069219;28;20381;-83
2023/10/15 02:51:41;;;;;;;2.80;0.98;;;;;;;;;;5068960;28;20381;-84
2023/10/15 02:57:06;;;;;;;2.37;1.20;;;;;;;;;;5045985;28;20389;-84
2023/10/15 02:59:32;;;;;;;2.20;0.90;;;;;;;;;;5068878;28;20381;-83
2023/10/15 03:02:06;;;;;;;2.33;1.17;;;;;;;;;;5051786;28;20397;-83
2023/10/15 03:04:32;;;;;;;2.30;1.20;;;;;;;;;;5069110;28;20908;-83
2023/10/15 03:07:17;;;;;;;2.20;1.10;;;;;;;;;;5068933;28;20377;-83
2023/10/15 03:09:48;;;;;;;2.40;1.05;;;;;;;;;;5069358;28;20385;-83
2023/10/15 03:12:15;;;;;;;3.38;1.20;;;;;;;;;;5069832;28;20413;-83
2023/10/15 03:14:41;;;;;;;2.40;1.10;;;;;;;;;;5060919;28;20451;-83
2023/10/15 03:17:26;;;;;;;2.53;1.20;;;;;;;;;;5068982;28;20374;-84
2023/10/15 03:19:54;;;;;;;3.13;1.20;;;;;;;;;;5051809;28;20442;-84
2023/10/15 03:22:23;;;;;;;1.85;0.95;;;;;;;;;;5068721;28;20385;-83
2023/10/15 03:24:50;;;;;;;2.42;1.10;;;;;;;;;;5068784;28;20374;-83
2023/10/15 03:27:20;;;;;;;3.72;1.35;;;;;;;;;;5068999;28;20393;-83
2023/10/15 03:29:47;;;;;;;2.42;1.00;;;;;;;;;;5071459;28;20374;-84
2023/10/15 03:32:13;;;;;;;1.17;0.80;;;;;;;;;;5071876;28;20385;-83
2023/10/15 03:34:54;;;;;;;2.95;1.00;;;;;;;;;;5070370;28;20405;-83
2023/10/15 03:37:22;;;;;;;2.97;1.20;;;;;;;;;;5071488;28;20401;-84
2023/10/15 03:39:54;;;;;;;1.98;0.98;;;;;;;;;;5071123;28;20392;-83
2023/10/15 03:42:26;;;;;;;1.90;1.00;;;;;;;;;;5069818;28;20445;-83
2023/10/15 03:45:01;;;;;;;2.25;1.13;;;;;;;;;;5070827;28;20460;-83
2023/10/15 03:47:27;;;;;;;3.17;1.40;;;;;;;;;;5070767;28;20385;-83
2023/10/15 03:49:55;;;;;;;4.18;1.20;;;;;;;;;;5071103;28;20373;-83
2023/10/15 03:52:21;;;;;;;4.68;1.45;;;;;;;;;;5072041;28;20385;-83
2023/10/15 03:54:48;;;;;;;2.70;1.45;;;;;;;;;;5072233;28;20408;-83
2023/10/15 03:57:17;;;;;;;2.08;1.13;;;;;;;;;;5071559;28;20411;-84
2023/10/15 04:00:06;;;;;;;2.60;1.17;;;;;;;;;;5071903;28;20416;-82
2023/10/15 04:05:28;;;;;;;2.35;1.00;;;;;;;;;;5048739;28;20397;-83
2023/10/15 04:07:55;;;;;;;2.95;1.10;;;;;;;;;;5054729;28;20491;-83
2023/10/15 04:10:24;;;;;;;2.47;1.27;;;;;;;;;;5072140;28;20374;-83
2023/10/15 04:12:50;;;;;;;3.22;1.40;;;;;;;;;;5066679;28;20724;-83
2023/10/15 04:15:17;;;;;;;3.60;1.10;;;;;;;;;;5071387;28;20435;-84
2023/10/15 04:17:48;;;;;;;2.90;1.40;;;;;;;;;;5071877;28;20396;-84
2023/10/15 04:20:34;;;;;;;2.90;1.40;;;;;;;;;;5071313;28;20825;-83
2023/10/15 04:23:00;;;;;;;4.00;1.45;;;;;;;;;;5072133;28;20401;-83
2023/10/15 04:25:27;;;;;;;3.25;1.50;;;;;;;;;;5071311;28;20385;-83
2023/10/15 04:27:54;;;;;;;2.53;1.20;;;;;;;;;;5071462;28;20805;-83
2023/10/15 04:30:20;;;;;;;2.27;1.20;;;;;;;;;;5072478;28;20397;-83
2023/10/15 04:32:47;;;;;;;3.00;1.38;;;;;;;;;;5071496;28;20786;-83
2023/10/15 04:35:17;;;;;;;2.85;1.50;;;;;;;;;;5071741;28;20804;-83
2023/10/15 04:37:44;;;;;;;3.28;1.42;;;;;;;;;;5071191;28;20413;-83
2023/10/15 04:40:11;;;;;;;3.40;1.33;;;;;;;;;;5071273;28;20381;-83
2023/10/15 04:42:48;;;;;;;4.05;1.50;;;;;;;;;;5071175;28;20400;-84
2023/10/15 04:45:21;;;;;;;3.78;1.65;;;;;;;;;;5058220;28;20900;-83
2023/10/15 04:47:51;;;;;;;5.87;1.70;;;;;;;;;;5054683;28;20481;-83
2023/10/15 04:50:17;;;;;;;3.45;2.00;;;;;;;;;;5072410;28;20372;-83
2023/10/15 04:52:43;;;;;;;5.80;1.83;;;;;;;;;;5070773;28;20394;-82
2023/10/15 04:55:16;;;;;;;3.95;1.60;;;;;;;;;;5071294;28;20453;-83
2023/10/15 04:57:44;;;;;;;3.03;1.80;;;;;;;;;;5071625;28;20382;-83
2023/10/15 05:00:10;;;;;;;4.28;1.67;;;;;;;;;;5071434;28;20381;-83
2023/10/15 05:02:36;;;;;;;4.90;2.03;;;;;;;;;;5071763;28;20381;-83
2023/10/15 05:05:06;;;;;;;4.03;1.90;;;;;;;;;;5072018;28;20389;-82
2023/10/15 05:07:32;;;;;;;5.40;1.88;;;;;;;;;;5071973;28;20441;-83
2023/10/15 05:09:59;;;;;;;3.65;1.90;;;;;;;;;;5071620;28;20393;-83
2023/10/15 05:12:25;;;;;;;3.47;2.00;;;;;;;;;;5072374;28;20394;-83
2023/10/15 05:14:52;;;;;;;4.30;1.70;;;;;;;;;;5072635;28;20786;-83
2023/10/15 05:17:20;;;;;;;5.85;2.17;;;;;;;;;;5071569;28;20389;-82
2023/10/15 05:19:52;;;;;;;3.00;1.58;;;;;;;;;;5071923;28;20381;-83
2023/10/15 05:22:19;;;;;;;4.57;1.60;;;;;;;;;;5071555;28;20400;-83
2023/10/15 05:24:45;;;;;;;5.47;1.90;;;;;;;;;;5071827;28;20411;-82
2023/10/15 05:27:12;;;;;;;3.60;1.73;;;;;;;;;;5071535;28;20859;-83
2023/10/15 05:29:38;;;;;;;2.85;1.58;;;;;;;;;;5070298;28;20531;-84
2023/10/15 05:32:04;;;;;;;4.77;1.70;;;;;;;;;;5072132;28;20377;-83
2023/10/15 05:34:30;;;;;;;4.85;1.83;;;;;;;;;;5070643;28;20475;-83
2023/10/15 05:36:56;;;;;;;4.57;1.83;;;;;;;;;;5054223;28;20398;-83
2023/10/15 05:39:24;;;;;;;4.25;1.60;;;;;;;;;;5054156;28;20420;-82
2023/10/15 05:41:50;;;;;;;3.72;1.77;;;;;;;;;;5071580;28;20452;-83
2023/10/15 05:44:18;;;;;;;4.77;1.80;;;;;;;;;;5071272;28;20420;-83
2023/10/15 05:46:46;;;;;;;5.82;2.33;;;;;;;;;;5071468;28;20385;-83
2023/10/15 05:49:12;;;;;;;3.72;1.60;;;;;;;;;;5070005;28;20385;-83
2023/10/15 05:51:38;;;;;;;4.22;1.50;;;;;;;;;;5070336;28;20388;-83
2023/10/15 05:54:04;;;;;;;4.05;1.55;;;;;;;;;;5069619;28;20746;-83
2023/10/15 05:56:30;;;;;;;5.22;1.60;;;;;;;;;;5070382;28;20456;-84
2023/10/15 05:58:57;;;;;;;5.13;1.80;;;;;;;;;;5069469;28;20374;-84
2023/10/15 06:01:23;;;;;;;3.35;1.60;;;;;;;;;;5070067;28;20374;-83
2023/10/15 06:03:50;;;;;;;3.28;1.50;;;;;;;;;;5064518;28;20391;-83
2023/10/15 06:06:16;;;;;;;3.08;1.67;;;;;;;;;;5061047;28;20385;-82
2023/10/15 06:08:43;;;;;;;4.57;1.70;;;;;;;;;;5070594;28;20943;-82
2023/10/15 06:11:09;;;;;;;4.15;1.65;;;;;;;;;;5052574;28;20394;-83
2023/10/15 06:13:35;;;;;;;4.63;1.60;;;;;;;;;;5070225;28;20389;-83
2023/10/15 06:16:03;;;;;;;2.25;1.45;;;;;;;;;;5068519;28;20425;-83
2023/10/15 06:18:30;;;;;;;3.63;1.63;;;;;;;;;;5067667;28;20389;-83
2023/10/15 06:20:56;;;;;;;4.25;1.55;;;;;;;;;;5068926;28;20416;-83
2023/10/15 06:23:22;;;;;;;4.05;1.67;;;;;;;;;;5068598;28;20377;-83
2023/10/15 06:25:48;;;;;;;4.18;1.80;;;;;;;;;;5068243;28;20751;-83
2023/10/15 06:28:14;;;;;;;3.97;1.75;;;;;;;;;;5068350;28;20881;-83
2023/10/15 06:30:41;;;;;;;6.13;2.08;;;;;;;;;;5051667;28;20417;-83
2023/10/15 06:33:07;;;;;;;5.28;2.03;;;;;;;;;;5069843;28;20381;-83
2023/10/15 06:35:33;;;;;;;6.13;1.95;;;;;;;;;;5067845;28;20413;-83
2023/10/15 06:37:59;;;;;;;5.63;1.83;;;;;;;;;;5067547;28;20381;-83
2023/10/15 06:40:26;;;;;;;3.23;1.60;;;;;;;;;;5067659;28;20421;-83
2023/10/15 06:42:59;;;;;;;4.30;1.90;;;;;;;;;;5067434;28;20453;-83
2023/10/15 06:45:25;;;;;;;6.27;1.87;;;;;;;;;;5063244;28;20415;-84
2023/10/15 06:47:52;;;;;;;4.78;1.73;;;;;;;;;;5061893;28;20389;-84
2023/10/15 06:50:19;;;;;;;6.10;2.30;;;;;;;;;;5046419;28;20385;-83
2023/10/15 06:52:45;;;;;;;4.90;2.08;;;;;;;;;;5063142;28;20414;-84
2023/10/15 06:55:13;;;;;;;3.37;2.00;;;;;;;;;;5065861;28;20413;-85
2023/10/15 06:57:39;;;;;;;4.32;1.70;;;;;;;;;;5067875;28;21197;-85
2023/10/15 07:00:09;;;;;;;3.58;1.77;;;;;;;;;;5049204;28;20727;-84
2023/10/15 07:02:35;;;;;;;5.97;2.20;;;;;;;;;;5047315;28;20401;-84
2023/10/15 07:05:02;;;;;;;5.35;2.10;;;;;;;;;;5065162;28;20396;-84
2023/10/15 07:07:28;;;;;;;5.13;2.28;;;;;;;;;;5048549;28;20425;-84
2023/10/15 07:09:54;;;;;;;4.93;2.03;;;;;;;;;;5064730;28;20381;-83
2023/10/15 07:12:21;;;;;;;4.53;2.05;;;;;;;;;;5046015;28;20409;-84
2023/10/15 07:14:48;;;;;;;5.13;2.15;;;;;;;;;;5066124;28;20404;-83
2023/10/15 07:17:17;;;;;;;4.25;2.00;;;;;;;;;;5069410;28;20770;-83
2023/10/15 07:19:43;;;;;;;4.85;2.15;;;;;;;;;;5050283;28;20385;-83
2023/10/15 07:22:09;;;;;;;5.28;2.10;;;;;;;;;;5068481;28;20424;-84
2023/10/15 07:24:35;;;;;;;5.03;2.05;;;;;;;;;;5066766;28;20405;-84
2023/10/15 07:27:01;;;;;;;4.50;1.70;;;;;;;;;;5047463;28;20446;-83
2023/10/15 07:29:28;;;;;;;3.45;1.85;;;;;;;;;;5065897;28;20751;-83
2023/10/15 07:31:55;;;;;;;3.72;1.85;;;;;;;;;;5059634;28;20386;-83
2023/10/15 07:34:22;;;;;;;2.72;1.30;;;;;;;;;;5061496;28;20409;-83
2023/10/15 07:36:51;;;;;;;4.20;1.40;;;;;;;;;;5062255;28;21291;-81
2023/10/15 07:39:17;;;;;;;4.47;1.38;;;;;;;;;;5055568;28;20392;-81
2023/10/15 07:41:43;;;;;;;3.17;1.30;;;;;;;;;;5052184;28;20464;-82
2023/10/15 07:44:10;;;;;;;3.97;1.30;;;;;;;;;;5054870;28;20397;-81
2023/10/15 07:46:36;;;;;;;2.25;1.15;;;;;;;;;;5055261;28;20464;-82
2023/10/15 07:49:03;;;;;;;2.23;1.10;;;;;;;;;;5055380;28;20392;-81
2023/10/15 07:51:29;;;;;;;2.63;0.90;;;;;;;;;;5054638;28;20377;-81
2023/10/15 07:53:55;;;;;;;2.78;1.50;;;;;;;;;;5054598;28;20488;-81
2023/10/15 07:56:21;;;;;;;1.63;0.73;;;;;;;;;;5054637;28;20402;-81
2023/10/15 07:58:48;;;;;;;2.30;1.05;;;;;;;;;;5054997;28;20380;-82
2023/10/15 08:01:14;;;;;;;2.47;1.05;;;;;;;;;;5054587;28;20467;-82
2023/10/15 08:03:40;;;;;;;2.87;0.90;;;;;;;;;;5055186;28;20918;-82
2023/10/15 08:06:07;;;;;;;1.85;0.80;;;;;;;;;;5054237;28;20499;-81
2023/10/15 08:08:34;;;;;;;2.57;0.70;;;;;;;;;;5054601;28;20377;-81
2023/10/15 08:11:00;;;;;;;1.90;0.70;;;;;;;;;;5054045;28;20400;-81
2023/10/15 08:13:26;;;;;;;2.33;0.60;;;;;;;;;;5055584;28;20396;-81
2023/10/15 08:15:52;;;;;;;1.23;0.50;;;;;;;;;;5058101;28;20959;-81
2023/10/15 08:18:18;;;;;;;1.30;0.60;;;;;;;;;;5057979;28;20440;-81
2023/10/15 08:20:45;;;;;;;2.20;0.60;;;;;;;;;;5057862;28;20396;-81
2023/10/15 08:23:11;;;;;;;1.42;0.60;;;;;;;;;;5057778;28;20386;-81
2023/10/15 08:25:37;;;;;;;1.25;0.52;;;;;;;;;;5057656;28;20707;-81
2023/10/15 08:28:03;;;;;;;0.80;0.60;;;;;;;;;;5058281;28;20550;-82
2023/10/15 08:30:30;;;;;;;1.30;0.47;;;;;;;;;;5058375;28;20388;-81
2023/10/15 08:32:56;;;;;;;0.98;0.50;;;;;;;;;;5058667;28;20384;-82
2023/10/15 08:35:22;;;;;;;1.02;0.45;;;;;;;;;;5039748;28;20413;-81
2023/10/15 08:37:48;;;;;;;1.83;0.63;;;;;;;;;;5040048;28;20385;-82
2023/10/15 08:40:17;;;;;;;1.57;0.50;;;;;;;;;;5057916;28;20400;-81
2023/10/15 08:42:53;;;;;;;1.30;0.70;;;;;;;;;;5057642;28;20380;-81
2023/10/15 08:45:22;;;;;;;1.60;0.50;;;;;;;;;;5058378;28;20742;-82
2023/10/15 08:47:48;;;;;;;0.90;0.50;;;;;;;;;;5057719;28;20408;-82
2023/10/15 08:50:16;;;;;;;1.55;0.80;;;;;;;;;;5057949;28;20381;-82
2023/10/15 08:52:45;;;;;;;2.03;0.57;;;;;;;;;;5057380;28;20380;-81
2023/10/15 08:55:11;;;;;;;1.40;0.70;;;;;;;;;;5056987;28;20421;-82
2023/10/15 08:57:38;;;;;;;1.45;0.50;;;;;;;;;;5039280;28;20727;-81
2023/10/15 09:00:05;;;;;;;1.30;0.40;;;;;;;;;;5057225;28;20904;-82
2023/10/15 09:02:31;;;;;;;1.42;0.70;;;;;;;;;;5039886;28;20389;-82
2023/10/15 09:04:57;;;;;;;1.75;0.70;;;;;;;;;;5057522;28;20443;-81
2023/10/15 09:07:23;;;;;;;1.57;0.70;;;;;;;;;;5058066;28;20389;-82
2023/10/15 09:09:49;;;;;;;1.38;0.60;;;;;;;;;;5058162;28;20396;-81
2023/10/15 09:12:15;;;;;;;1.67;0.70;;;;;;;;;;5039311;28;20404;-81
2023/10/15 09:14:45;;;;;;;2.87;0.80;;;;;;;;;;5048792;28;20906;-82
2023/10/15 09:17:12;;;;;;;2.23;0.50;;;;;;;;;;5056809;28;20869;-82
2023/10/15 09:19:39;;;;;;;1.80;0.80;;;;;;;;;;5057130;28;20378;-81
2023/10/15 09:22:08;;;;;;;1.98;0.68;;;;;;;;;;5057037;28;20468;-81
2023/10/15 09:24:36;;;;;;;1.75;0.75;;;;;;;;;;5057014;28;20435;-82
2023/10/15 09:27:05;;;;;;;1.52;0.63;;;;;;;;;;5056519;28;20862;-81
2023/10/15 09:29:31;;;;;;;1.50;0.60;;;;;;;;;;5056761;28;20393;-81
2023/10/15 09:32:02;;;;;;;1.83;0.70;;;;;;;;;;5057920;28;20405;-81
2023/10/15 09:34:29;;;;;;;1.20;0.60;;;;;;;;;;5056681;28;20884;-81
2023/10/15 09:36:58;;;;;;;2.28;0.52;;;;;;;;;;5056934;28;20393;-81
2023/10/15 09:39:26;;;;;;;1.08;0.55;;;;;;;;;;5056883;28;20392;-81
2023/10/15 09:41:53;;;;;;;0.90;0.47;;;;;;;;;;5056205;28;20389;-82
2023/10/15 09:44:19;;;;;;;1.10;0.40;;;;;;;;;;5056642;28;20775;-82
2023/10/15 09:46:46;;;;;;;0.60;0.40;;;;;;;;;;5056498;28;20712;-81
2023/10/15 09:49:13;;;;;;;0.93;0.40;;;;;;;;;;5056947;28;20790;-82
2023/10/15 09:51:40;;;;;;;0.73;0.50;;;;;;;;;;5056436;28;20389;-81
2023/10/15 09:54:13;;;;;;;1.08;0.50;;;;;;;;;;5056369;28;20409;-81
2023/10/15 09:56:40;;;;;;;0.95;0.60;;;;;;;;;;5056925;28;20393;-82
2023/10/15 09:59:07;;;;;;;1.27;0.77;;;;;;;;;;5056465;28;20433;-81
2023/10/15 10:01:34;;;;;;;1.40;0.50;;;;;;;;;;5056582;28;20389;-81
2023/10/15 10:04:16;;;;;;;2.03;0.93;;;;;;;;;;5057134;28;20883;-82
2023/10/15 10:06:48;;;;;;;1.65;0.80;;;;;;;;;;5056212;28;20467;-81
2023/10/15 10:09:38;;;;;;;1.55;1.00;;;;;;;;;;5056671;28;20450;-81
2023/10/15 10:12:23;;;;;;;2.15;1.20;;;;;;;;;;5056434;28;20476;-81
2023/10/15 10:14:58;;;;;;;2.03;1.17;;;;;;;;;;5049480;28;20410;-81
2023/10/15 10:17:25;;;;;;;1.08;0.60;;;;;;;;;;5056436;28;20421;-81
2023/10/15 10:19:52;;;;;;;2.25;1.13;;;;;;;;;;5056641;28;20405;-81
2023/10/15 10:22:27;;;;;;;2.30;1.17;;;;;;;;;;5037791;28;20913;-82
2023/10/15 10:24:54;;;;;;;2.60;1.15;;;;;;;;;;5055744;28;20472;-81
2023/10/15 10:27:20;;;;;;;1.90;0.70;;;;;;;;;;5055389;28;20439;-82
2023/10/15 10:30:12;;;;;;;1.85;0.70;;;;;;;;;;5055931;28;20381;-81
2023/10/15 10:32:39;;;;;;;1.13;0.73;;;;;;;;;;5055888;28;20386;-82
2023/10/15 10:35:18;;;;;;;1.38;0.60;;;;;;;;;;5055871;28;20439;-81
2023/10/15 10:38:06;;;;;;;1.67;0.70;;;;;;;;;;5056126;28;20396;-82
2023/10/15 10:40:50;;;;;;;1.70;0.80;;;;;;;;;;5055713;28;20412;-82
2023/10/15 10:43:19;;;;;;;1.33;0.80;;;;;;;;;;5055782;28;20389;-81
2023/10/15 10:46:01;;;;;;;1.60;0.82;;;;;;;;;;5037983;28;20393;-81
2023/10/15 10:48:37;;;;;;;1.02;0.50;;;;;;;;;;5056215;28;20382;-82
2023/10/15 10:51:09;;;;;;;3.58;0.70;;;;;;;;;;5055865;28;20396;-81
2023/10/15 10:53:35;;;;;;;1.10;0.52;;;;;;;;;;5056218;28;20392;-81
2023/10/15 10:56:05;;;;;;;1.90;1.40;;;;;;;;;;5038194;28;20421;-82
2023/10/15 10:58:31;;;;;;;1.98;0.68;;;;;;;;;;5055642;28;20385;-81
2023/10/15 11:00:57;;;;;;;2.20;1.30;;;;;;;;;;5056015;28;20892;-82
2023/10/15 11:03:24;;;;;;;1.67;1.10;;;;;;;;;;5055954;28;20381;-82
2023/10/15 11:05:50;;;;;;;1.75;0.70;;;;;;;;;;5055677;28;20850;-82
2023/10/15 11:08:19;;;;;;;2.10;0.82;;;;;;;;;;5055412;28;20447;-81
2023/10/15 11:10:45;;;;;;;0.93;0.52;;;;;;;;;;5055364;28;20389;-82
2023/10/15 11:13:12;;;;;;;2.35;0.82;;;;;;;;;;5056132;28;20873;-82
2023/10/15 11:15:38;;;;;;;1.55;0.68;;;;;;;;;;5055590;28;20413;-82
2023/10/15 11:18:08;;;;;;;1.77;0.80;;;;;;;;;;5055721;28;20795;-82
2023/10/15 11:20:35;;;;;;;1.45;0.80;;;;;;;;;;5055218;28;20472;-82
2023/10/15 11:23:06;;;;;;;1.98;0.60;;;;;;;;;;5055184;28;20377;-82
2023/10/15 11:25:34;;;;;;;1.20;0.70;;;;;;;;;;5055198;28;20377;-81
2023/10/15 11:28:07;;;;;;;2.58;1.55;;;;;;;;;;5056113;28;20377;-82
2023/10/15 11:30:33;;;;;;;2.10;1.60;;;;;;;;;;5055342;28;20382;-81
2023/10/15 11:33:07;;;;;;;1.63;0.90;;;;;;;;;;5055546;28;20387;-82
2023/10/15 11:35:33;;;;;;;1.70;0.70;;;;;;;;;;5056152;28;20409;-82
2023/10/15 11:37:59;;;;;;;1.98;0.80;;;;;;;;;;5055384;28;21243;-82
2023/10/15 11:40:25;;;;;;;1.52;0.50;;;;;;;;;;5055411;28;20385;-81
2023/10/15 11:42:51;;;;;;;1.88;0.70;;;;;;;;;;5055455;28;20385;-82
2023/10/15 11:45:30;;;;;;;1.42;0.80;;;;;;;;;;5056004;28;20435;-82
2023/10/15 11:47:56;;;;;;;2.00;0.70;;;;;;;;;;5055208;28;20385;-81
2023/10/15 11:50:23;;;;;;;1.65;0.80;;;;;;;;;;5058336;28;20718;-82
2023/10/15 11:52:52;;;;;;;1.70;0.93;;;;;;;;;;5059143;28;20921;-81
2023/10/15 11:55:22;;;;;;;1.67;0.65;;;;;;;;;;5058639;28;20424;-81
2023/10/15 11:57:53;;;;;;;0.95;0.60;;;;;;;;;;5058486;28;20427;-81
2023/10/15 12:00:23;;;;;;;2.30;0.93;;;;;;;;;;5058204;28;20411;-81
2023/10/15 12:02:56;;;;;;;1.27;0.80;;;;;;;;;;5058762;28;20393;-81
2023/10/15 12:05:22;;;;;;;1.60;0.70;;;;;;;;;;5058771;28;20381;-82
2023/10/15 12:07:48;;;;;;;1.00;0.70;;;;;;;;;;5040497;28;20401;-82
2023/10/15 12:10:14;;;;;;;1.42;0.70;;;;;;;;;;5059699;28;20402;-81
2023/10/15 12:12:41;;;;;;;2.10;0.70;;;;;;;;;;5055119;28;20387;-81
2023/10/15 12:15:08;;;;;;;1.40;0.95;;;;;;;;;;5053326;28;20500;-81
2023/10/15 12:17:34;;;;;;;1.65;0.85;;;;;;;;;;5058477;28;20393;-81
2023/10/15 12:20:00;;;;;;;1.45;0.77;;;;;;;;;;5058692;28;20455;-81
2023/10/15 12:22:26;;;;;;;0.73;0.52;;;;;;;;;;5058432;28;20386;-81
2023/10/15 12:24:52;;;;;;;1.33;0.70;;;;;;;;;;5058265;28;20491;-81
2023/10/15 12:27:18;;;;;;;1.45;0.60;;;;;;;;;;5058526;28;20474;-81
2023/10/15 12:29:44;;;;;;;1.30;0.60;;;;;;;;;;5058242;28;20486;-81
2023/10/15 12:32:12;;;;;;;1.20;0.70;;;;;;;;;;5058481;28;20386;-81
2023/10/15 12:34:39;;;;;;;2.40;1.00;;;;;;;;;;5058416;28;20420;-81
2023/10/15 12:37:08;;;;;;;1.80;1.10;;;;;;;;;;5058429;28;20390;-81
2023/10/15 12:39:40;;;;;;;1.15;0.60;;;;;;;;;;5058319;28;20420;-81
2023/10/15 12:42:08;;;;;;;0.80;0.70;;;;;;;;;;5059792;28;20382;-81
2023/10/15 12:44:40;;;;;;;1.77;0.70;;;;;;;;;;5058132;28;20420;-81
2023/10/15 12:47:08;;;;;;;1.52;0.50;;;;;;;;;;5057086;28;20393;-82
2023/10/15 12:49:35;;;;;;;0.80;0.40;;;;;;;;;;5050363;28;20401;-82
2023/10/15 12:52:02;;;;;;;1.00;0.57;;;;;;;;;;5069459;28;20389;-83
2023/10/15 12:54:34;;;;;;;1.42;0.50;;;;;;;;;;5070362;28;20413;-83
2023/10/15 12:57:00;;;;;;;0.80;0.40;;;;;;;;;;5068112;28;20404;-84
2023/10/15 12:59:27;;;;;;;1.25;0.60;;;;;;;;;;5069760;28;20449;-83
2023/10/15 13:01:53;;;;;;;1.00;0.60;;;;;;;;;;5069189;28;20398;-83
2023/10/15 13:04:21;;;;;;;1.02;0.60;;;;;;;;;;5069131;28;20417;-83
2023/10/15 13:06:47;;;;;;;1.30;0.70;;;;;;;;;;5068917;28;20392;-84
2023/10/15 13:09:19;;;;;;;2.03;0.60;;;;;;;;;;5070473;28;20419;-84
2023/10/15 13:11:45;;;;;;;1.35;0.82;;;;;;;;;;5068694;28;20447;-82
2023/10/15 13:14:11;;;;;;;1.40;0.73;;;;;;;;;;5069257;28;20404;-83
2023/10/15 13:16:38;;;;;;;1.38;0.50;;;;;;;;;;5070621;28;20919;-84
2023/10/15 13:19:04;;;;;;;1.33;0.80;;;;;;;;;;5070652;28;20423;-82
2023/10/15 13:21:30;;;;;;;0.90;0.60;;;;;;;;;;5072564;28;20389;-83
2023/10/15 13:23:57;;;;;;;1.05;0.47;;;;;;;;;;5071766;28;20461;-82
2023/10/15 13:26:24;;;;;;;1.52;0.70;;;;;;;;;;5070396;28;20394;-82
2023/10/15 13:28:51;;;;;;;1.17;0.90;;;;;;;;;;5053013;28;20878;-82
2023/10/15 13:31:17;;;;;;;1.48;0.77;;;;;;;;;;5067074;28;20372;-82
2023/10/15 13:33:43;;;;;;;1.10;0.60;;;;;;;;;;5071930;28;20389;-82
2023/10/15 13:36:13;;;;;;;1.40;0.65;;;;;;;;;;5070655;28;20409;-81
2023/10/15 13:38:40;;;;;;;2.42;0.80;;;;;;;;;;5060161;28;20397;-82
2023/10/15 13:41:06;;;;;;;1.45;0.80;;;;;;;;;;5070865;28;20370;-81
2023/10/15 13:43:32;;;;;;;2.08;0.70;;;;;;;;;;5070644;28;20397;-82
2023/10/15 13:45:58;;;;;;;1.35;0.80;;;;;;;;;;5070960;28;20419;-81
2023/10/15 13:48:24;;;;;;;1.77;0.82;;;;;;;;;;5065312;28;20407;-82
2023/10/15 13:50:51;;;;;;;1.15;0.60;;;;;;;;;;5061776;28;20405;-82
2023/10/15 13:53:17;;;;;;;1.10;0.60;;;;;;;;;;5070059;28;20385;-82
2023/10/15 13:55:43;;;;;;;1.70;0.50;;;;;;;;;;5070381;28;20468;-82
2023/10/15 13:58:09;;;;;;;1.07;0.70;;;;;;;;;;5071394;28;20465;-82
2023/10/15 14:00:37;;;;;;;1.23;0.70;;;;;;;;;;5070744;28;20382;-82
2023/10/15 14:03:04;;;;;;;1.95;0.70;;;;;;;;;;5071297;28;20378;-83
2023/10/15 14:05:32;;;;;;;0.95;0.47;;;;;;;;;;5071225;28;20388;-82
2023/10/15 14:07:59;;;;;;;1.63;0.77;;;;;;;;;;5071359;28;20389;-82
2023/10/15 14:10:25;;;;;;;1.05;0.60;;;;;;;;;;5051708;28;20390;-82
2023/10/15 14:12:51;;;;;;;0.95;0.70;;;;;;;;;;5052529;28;20404;-82
2023/10/15 14:15:17;;;;;;;1.30;0.90;;;;;;;;;;5053715;28;20413;-82
2023/10/15 14:17:44;;;;;;;1.27;0.60;;;;;;;;;;5071466;28;20378;-83
2023/10/15 14:20:14;;;;;;;1.80;0.80;;;;;;;;;;5070858;28;20389;-81
2023/10/15 14:22:40;;;;;;;1.25;0.68;;;;;;;;;;5071061;28;20396;-81
2023/10/15 14:25:06;;;;;;;1.20;0.60;;;;;;;;;;5053235;28;20394;-82
2023/10/15 14:27:33;;;;;;;1.45;0.70;;;;;;;;;;5069925;28;20394;-82
2023/10/15 14:30:00;;;;;;;1.50;0.80;;;;;;;;;;5069829;28;20361;-82
2023/10/15 14:32:26;;;;;;;1.30;0.80;;;;;;;;;;5049000;28;20392;-82
2023/10/15 14:34:52;;;;;;;1.60;0.53;;;;;;;;;;5068263;28;20441;-82
2023/10/15 14:37:18;;;;;;;1.30;0.88;;;;;;;;;;5069923;28;20396;-82
2023/10/15 14:39:45;;;;;;;1.58;0.88;;;;;;;;;;5069284;28;20398;-82
2023/10/15 14:42:11;;;;;;;1.42;1.10;;;;;;;;;;5068813;28;20389;-82
2023/10/15 14:44:37;;;;;;;3.35;2.63;;;;;;;;;;5069287;28;20377;-82
2023/10/15 14:47:03;;;;;;;1.65;1.27;;;;;;;;;;5069515;28;20386;-82
2023/10/15 14:49:29;;;;;;;1.45;1.10;;;;;;;;;;5068667;28;20413;-83
2023/10/15 14:51:55;;;;;;;1.50;0.83;;;;;;;;;;5067397;28;20453;-82
2023/10/15 14:54:21;;;;;;;1.35;0.80;;;;;;;;;;5049963;28;20485;-82
2023/10/15 14:56:47;;;;;;;1.30;0.70;;;;;;;;;;5070106;28;20442;-82
2023/10/15 14:59:14;;;;;;;1.50;0.90;;;;;;;;;;5053316;28;20397;-81
2023/10/15 15:01:40;;;;;;;1.52;0.70;;;;;;;;;;5052503;28;20405;-81
2023/10/15 15:04:06;;;;;;;1.70;0.70;;;;;;;;;;5061282;28;20452;-81